Time;durP1;ratioP1;P1;durP2;ratioP2;P2;SDS_P1;SDS_P2;PMS_P1;PMS_P2;Temp;Humidity;BMP_temperature;BMP_pressure;BME280_temperature;BME280_humidity;BME280_pressure;Samples;Min_cycle;Max_cycle;Signal;HPM_P1;HPM_P2
2021/05/22 04:55:16;;;;;;;0.73;0.50;;;20.70;57.20;;;;;;5196090;27;20433;-66
2021/05/22 04:59:35;;;;;;;0.93;0.50;;;20.70;57.00;;;;;;5160804;28;20446;-65
2021/05/22 05:02:08;;;;;;;0.60;0.50;;;20.80;57.10;;;;;;5116053;28;20050;-64
2021/05/22 05:04:41;;;;;;;1.47;0.60;;;21.00;56.80;;;;;;5110920;28;20057;-64
2021/05/22 05:07:14;;;;;;;0.80;0.80;;;21.10;56.40;;;;;;5110363;28;20054;-65
2021/05/22 05:09:50;;;;;;;0.67;0.60;;;21.20;56.20;;;;;;5124196;28;20050;-65
2021/05/22 05:12:23;;;;;;;0.85;0.50;;;21.30;55.90;;;;;;5140257;28;21055;-64
2021/05/22 05:14:56;;;;;;;0.75;0.60;;;21.40;55.80;;;;;;5124323;28;20049;-64
2021/05/22 05:17:28;;;;;;;0.40;0.40;;;21.50;55.50;;;;;;5123648;28;20161;-65
2021/05/22 05:20:01;;;;;;;0.80;0.50;;;21.50;55.30;;;;;;5127725;28;20057;-64
2021/05/22 05:22:34;;;;;;;1.60;0.70;;;21.60;55.10;;;;;;5132996;28;20050;-64
2021/05/22 05:25:08;;;;;;;0.88;0.43;;;21.60;54.90;;;;;;5122358;28;20051;-63
2021/05/22 05:27:41;;;;;;;0.63;0.50;;;21.70;54.80;;;;;;5125278;28;20041;-66
2021/05/22 05:30:14;;;;;;;0.70;0.40;;;21.80;54.80;;;;;;5132354;28;20051;-64
2021/05/22 05:32:47;;;;;;;0.65;0.40;;;21.80;54.70;;;;;;5133466;28;20054;-64
2021/05/22 05:35:19;;;;;;;0.38;0.30;;;21.80;54.40;;;;;;5121450;28;20080;-65
2021/05/22 05:37:52;;;;;;;0.40;0.40;;;21.90;54.30;;;;;;5126428;28;20050;-64
2021/05/22 05:40:24;;;;;;;0.30;0.30;;;21.90;54.30;;;;;;5115840;28;20068;-67
2021/05/22 05:42:57;;;;;;;0.50;0.30;;;21.90;54.10;;;;;;5128673;28;20053;-65
2021/05/22 05:45:30;;;;;;;0.40;0.40;;;22.00;54.00;;;;;;5120642;28;20050;-65
2021/05/22 05:48:04;;;;;;;0.65;0.40;;;22.00;53.90;;;;;;5130887;28;20670;-64
2021/05/22 05:50:37;;;;;;;0.40;0.40;;;22.00;53.70;;;;;;5121040;28;21125;-65
2021/05/22 05:53:09;;;;;;;0.50;0.50;;;22.10;53.70;;;;;;5124416;28;20074;-64
2021/05/22 05:55:42;;;;;;;0.57;0.40;;;22.10;53.90;;;;;;5127007;28;20050;-65
2021/05/22 05:58:15;;;;;;;0.38;0.38;;;22.10;53.70;;;;;;5127747;28;20042;-65
2021/05/22 06:00:47;;;;;;;0.40;0.40;;;22.10;53.60;;;;;;5124850;28;20061;-67
2021/05/22 06:03:27;;;;;;;0.40;0.40;;;22.10;53.60;;;;;;5119752;28;20418;-64
2021/05/22 06:06:00;;;;;;;0.60;0.40;;;22.20;53.50;;;;;;5116141;28;20069;-67
2021/05/22 06:08:33;;;;;;;0.30;0.30;;;22.20;53.50;;;;;;5120041;28;20050;-64
2021/05/22 06:11:08;;;;;;;0.60;0.35;;;22.20;53.40;;;;;;5109329;28;20049;-62
2021/05/22 06:13:41;;;;;;;0.40;0.38;;;22.20;53.40;;;;;;5113309;28;20050;-63
2021/05/22 06:16:48;;;;;;;0.43;0.35;;;22.20;53.30;;;;;;5109993;28;20081;-64
2021/05/22 06:19:12;;;;;;;0.70;0.30;;;22.20;53.30;;;;;;5109284;28;20628;-64
2021/05/22 06:21:45;;;;;;;0.85;0.30;;;22.30;53.30;;;;;;5113656;28;20050;-64
2021/05/22 06:24:17;;;;;;;1.03;0.40;;;22.30;53.20;;;;;;5109478;28;20054;-65
2021/05/22 06:26:53;;;;;;;0.30;0.30;;;22.30;53.10;;;;;;5112347;28;20050;-65
2021/05/22 06:29:25;;;;;;;0.70;0.50;;;22.30;53.00;;;;;;5114321;28;20054;-64
2021/05/22 06:31:58;;;;;;;0.95;0.32;;;22.30;53.10;;;;;;5112522;28;20399;-65
2021/05/22 06:34:31;;;;;;;0.93;0.40;;;22.30;53.10;;;;;;5114350;28;20769;-64
2021/05/22 06:37:03;;;;;;;0.70;0.50;;;22.40;53.10;;;;;;5115204;28;20072;-64
2021/05/22 06:39:36;;;;;;;0.73;0.45;;;22.30;52.90;;;;;;5113953;28;20534;-64
2021/05/22 06:42:10;;;;;;;0.55;0.40;;;22.40;53.10;;;;;;5109725;28;20050;-62
2021/05/22 06:44:52;;;;;;;0.40;0.40;;;22.40;53.00;;;;;;5101483;28;20126;-65
2021/05/22 06:47:25;;;;;;;0.80;0.38;;;22.40;53.00;;;;;;5115946;28;20062;-64
2021/05/22 06:49:57;;;;;;;0.22;0.22;;;22.40;53.00;;;;;;5106113;28;20065;-64
2021/05/22 06:52:30;;;;;;;0.50;0.50;;;22.30;53.10;;;;;;5112908;28;20050;-63
2021/05/22 06:55:06;;;;;;;0.40;0.40;;;22.40;53.00;;;;;;5116014;28;20050;-67
2021/05/22 06:57:38;;;;;;;0.63;0.47;;;22.40;53.70;;;;;;5107628;28;20672;-62
2021/05/22 07:00:11;;;;;;;0.35;0.35;;;22.30;53.00;;;;;;5106397;28;20932;-64
2021/05/22 07:02:47;;;;;;;0.50;0.50;;;22.40;53.10;;;;;;5115865;28;20050;-66
2021/05/22 07:05:20;;;;;;;0.50;0.40;;;22.40;53.10;;;;;;5110995;28;22248;-64
2021/05/22 07:07:52;;;;;;;0.43;0.43;;;22.40;53.10;;;;;;5110926;28;20459;-66
2021/05/22 07:10:25;;;;;;;0.50;0.30;;;22.40;53.10;;;;;;5110728;28;20057;-66
2021/05/22 07:12:57;;;;;;;0.55;0.40;;;22.40;53.10;;;;;;5113555;28;20561;-65
2021/05/22 07:15:30;;;;;;;0.88;0.40;;;22.40;53.00;;;;;;5110998;28;20890;-65
2021/05/22 07:18:03;;;;;;;0.57;0.40;;;22.40;53.10;;;;;;5097351;28;20652;-65
2021/05/22 07:20:36;;;;;;;0.50;0.40;;;22.40;53.10;;;;;;5109042;28;20305;-64
2021/05/22 07:23:08;;;;;;;0.45;0.38;;;22.40;53.00;;;;;;5110057;28;20062;-65
2021/05/22 07:25:41;;;;;;;0.40;0.40;;;22.30;53.00;;;;;;5108694;28;20068;-65
2021/05/22 07:28:15;;;;;;;0.50;0.45;;;22.40;53.10;;;;;;5111229;28;20072;-67
2021/05/22 07:30:48;;;;;;;0.40;0.40;;;22.40;53.10;;;;;;5111875;28;20046;-65
2021/05/22 07:33:20;;;;;;;0.43;0.30;;;22.40;53.10;;;;;;5119915;28;20060;-65
2021/05/22 07:35:53;;;;;;;0.47;0.40;;;22.40;53.10;;;;;;5112617;28;20507;-64
2021/05/22 07:38:26;;;;;;;0.50;0.40;;;22.40;53.10;;;;;;5106187;28;20062;-65
2021/05/22 07:40:59;;;;;;;0.38;0.30;;;22.40;53.00;;;;;;5109425;28;20657;-64
2021/05/22 07:43:32;;;;;;;0.77;0.43;;;22.40;53.00;;;;;;5109207;28;20047;-65
2021/05/22 07:46:05;;;;;;;0.30;0.30;;;22.40;53.00;;;;;;5107367;28;20425;-64
2021/05/22 07:48:37;;;;;;;0.40;0.40;;;22.40;53.00;;;;;;5106826;28;20051;-64
2021/05/22 07:51:10;;;;;;;0.47;0.40;;;22.40;53.00;;;;;;5108577;28;20039;-62
2021/05/22 07:53:42;;;;;;;0.40;0.40;;;22.40;53.00;;;;;;5111786;28;20046;-62
2021/05/22 07:56:16;;;;;;;0.40;0.40;;;22.40;52.90;;;;;;5102324;28;20533;-63
2021/05/22 07:58:49;;;;;;;0.75;0.60;;;22.40;52.90;;;;;;5103809;28;20764;-65
2021/05/22 08:01:21;;;;;;;0.32;0.30;;;22.40;53.00;;;;;;5104709;28;20511;-62
2021/05/22 08:03:54;;;;;;;0.87;0.40;;;22.40;53.10;;;;;;5100712;28;20031;-66
2021/05/22 08:06:27;;;;;;;0.88;0.40;;;22.40;53.00;;;;;;5112854;28;20046;-64
2021/05/22 08:08:59;;;;;;;0.40;0.30;;;22.40;52.90;;;;;;5095597;28;20064;-64
2021/05/22 08:11:32;;;;;;;0.40;0.40;;;22.50;53.60;;;;;;5117182;28;20054;-64
2021/05/22 08:14:04;;;;;;;0.52;0.30;;;22.50;52.90;;;;;;5098780;28;20054;-68
2021/05/22 08:16:38;;;;;;;0.88;0.32;;;22.50;53.00;;;;;;5099209;28;20065;-64
2021/05/22 08:19:13;;;;;;;0.50;0.30;;;22.40;53.60;;;;;;5102742;28;20043;-64
2021/05/22 08:21:46;;;;;;;0.60;0.30;;;22.50;52.90;;;;;;5110428;28;20050;-65
2021/05/22 08:24:18;;;;;;;0.40;0.30;;;22.50;53.00;;;;;;5111629;28;20077;-64
2021/05/22 08:26:51;;;;;;;0.30;0.30;;;22.50;52.90;;;;;;5100786;28;20054;-67
2021/05/22 08:29:43;;;;;;;0.55;0.45;;;22.40;52.90;;;;;;5108417;28;20401;-66
2021/05/22 08:32:16;;;;;;;0.80;0.40;;;22.40;52.90;;;;;;5102937;28;20057;-64
2021/05/22 08:34:48;;;;;;;0.38;0.32;;;22.40;52.90;;;;;;5104502;28;20051;-65
2021/05/22 08:37:21;;;;;;;0.40;0.40;;;22.40;52.80;;;;;;5103485;28;20055;-68
2021/05/22 08:39:54;;;;;;;1.10;0.50;;;22.40;52.90;;;;;;5102943;28;20049;-66
2021/05/22 08:42:28;;;;;;;0.28;0.22;;;22.40;52.90;;;;;;5098238;28;20054;-61
2021/05/22 08:45:13;;;;;;;0.32;0.30;;;22.40;53.00;;;;;;5099813;28;20057;-64
2021/05/22 08:47:48;;;;;;;0.68;0.38;;;22.40;53.00;;;;;;5102662;28;20434;-67
2021/05/22 08:50:21;;;;;;;0.80;0.40;;;22.40;53.00;;;;;;5115805;28;20589;-67
2021/05/22 08:52:55;;;;;;;0.40;0.40;;;22.40;53.00;;;;;;5112969;28;20050;-66
2021/05/22 08:55:27;;;;;;;;;;;22.40;53.10;;;;;;5105061;28;20054;-64
2021/05/22 08:57:59;;;;;;;0.60;0.50;;;22.40;53.00;;;;;;5096672;28;19938;-66
2021/05/22 09:00:38;;;;;;;0.45;0.30;;;22.40;53.00;;;;;;5098279;28;20042;-62
2021/05/22 09:03:12;;;;;;;2.10;0.50;;;22.40;52.90;;;;;;5105412;28;20050;-65
2021/05/22 09:05:45;;;;;;;1.05;0.45;;;22.40;52.90;;;;;;5122330;28;20069;-67
2021/05/22 09:08:17;;;;;;;0.50;0.50;;;22.40;52.90;;;;;;5102043;28;20062;-63
2021/05/22 09:10:52;;;;;;;0.40;0.32;;;22.40;53.00;;;;;;5104147;28;20056;-64
2021/05/22 09:13:26;;;;;;;0.52;0.40;;;22.40;53.00;;;;;;5107172;28;20050;-64
2021/05/22 09:15:59;;;;;;;0.43;0.43;;;22.40;53.00;;;;;;5110956;28;20051;-65
2021/05/22 09:18:35;;;;;;;0.50;0.47;;;22.40;53.00;;;;;;5100999;28;20057;-62
2021/05/22 09:21:12;;;;;;;0.45;0.45;;;22.40;53.10;;;;;;5110063;28;20146;-65
2021/05/22 09:23:50;;;;;;;1.13;0.40;;;22.40;53.10;;;;;;5100784;28;20059;-66
2021/05/22 09:26:32;;;;;;;0.73;0.35;;;22.30;53.10;;;;;;5099943;28;20522;-64
2021/05/22 09:29:06;;;;;;;0.55;0.40;;;22.40;53.30;;;;;;5106565;28;20053;-61
2021/05/22 09:31:40;;;;;;;0.98;0.40;;;22.30;53.20;;;;;;5112283;28;20454;-67
2021/05/22 09:34:12;;;;;;;0.43;0.43;;;22.30;53.30;;;;;;5092786;28;20058;-65
2021/05/22 09:36:45;;;;;;;0.50;0.40;;;22.30;53.30;;;;;;5103480;28;20061;-62
2021/05/22 09:39:19;;;;;;;0.93;0.50;;;22.40;53.30;;;;;;5113296;28;20054;-68
2021/05/22 09:41:53;;;;;;;0.85;0.52;;;22.40;53.20;;;;;;5108727;28;20050;-65
2021/05/22 09:44:25;;;;;;;0.50;0.35;;;22.40;53.30;;;;;;5113325;28;20061;-66
2021/05/22 09:47:00;;;;;;;0.75;0.50;;;22.40;53.30;;;;;;5111039;28;20695;-66
2021/05/22 09:49:37;;;;;;;1.20;0.40;;;22.40;52.70;;;;;;5111133;28;20061;-65
2021/05/22 09:52:13;;;;;;;0.60;0.40;;;22.30;53.20;;;;;;5109565;28;20051;-63
2021/05/22 09:54:57;;;;;;;0.47;0.40;;;22.40;53.30;;;;;;5107887;28;20070;-68
2021/05/22 09:57:32;;;;;;;1.00;0.70;;;22.30;53.20;;;;;;5109859;28;20813;-67
2021/05/22 10:00:10;;;;;;;0.60;0.50;;;22.30;53.20;;;;;;5106591;28;21061;-65
2021/05/22 10:02:53;;;;;;;0.98;0.40;;;22.30;53.30;;;;;;5105460;28;20046;-66
2021/05/22 10:05:33;;;;;;;1.23;0.40;;;22.30;53.30;;;;;;5109023;28;20430;-65
2021/05/22 10:08:06;;;;;;;1.10;0.52;;;22.30;53.20;;;;;;5104487;28;20039;-66
2021/05/22 10:10:45;;;;;;;0.80;0.50;;;22.30;53.30;;;;;;5111613;28;20061;-65
2021/05/22 10:13:23;;;;;;;0.88;0.50;;;22.30;53.30;;;;;;5110308;28;20061;-65
2021/05/22 10:16:01;;;;;;;0.43;0.43;;;22.30;53.30;;;;;;5121536;28;20050;-65
2021/05/22 10:18:34;;;;;;;2.92;0.50;;;22.30;53.30;;;;;;5103485;28;20050;-65
2021/05/22 10:21:07;;;;;;;0.65;0.50;;;22.40;53.20;;;;;;5116662;28;20057;-66
2021/05/22 10:23:41;;;;;;;0.60;0.50;;;22.30;53.20;;;;;;5109721;28;20035;-64
2021/05/22 10:26:14;;;;;;;0.50;0.40;;;22.30;53.30;;;;;;5101913;28;20298;-66
2021/05/22 10:28:48;;;;;;;0.68;0.32;;;22.30;53.30;;;;;;5103610;28;20218;-68
2021/05/22 10:31:21;;;;;;;0.50;0.40;;;22.30;53.30;;;;;;5104933;28;20448;-67
2021/05/22 10:33:54;;;;;;;0.63;0.63;;;22.30;53.30;;;;;;5097603;28;20585;-66
2021/05/22 10:36:46;;;;;;;0.80;0.43;;;22.30;53.30;;;;;;5107162;28;20125;-65
2021/05/22 10:39:38;;;;;;;0.40;0.40;;;22.30;53.30;;;;;;5120566;28;20081;-66
2021/05/22 10:42:22;;;;;;;0.40;0.40;;;22.30;53.20;;;;;;5103900;28;20054;-66
2021/05/22 10:44:57;;;;;;;0.50;0.40;;;22.30;53.30;;;;;;5102173;28;20072;-64
2021/05/22 10:47:36;;;;;;;1.30;0.50;;;22.30;53.30;;;;;;5105319;28;20532;-64
2021/05/22 10:50:09;;;;;;;0.57;0.40;;;22.30;53.30;;;;;;5104575;28;20500;-64
2021/05/22 10:52:42;;;;;;;0.80;0.40;;;22.30;53.30;;;;;;5101308;28;20072;-66
2021/05/22 10:55:15;;;;;;;0.40;0.40;;;22.30;53.30;;;;;;5098383;28;20073;-65
2021/05/22 10:57:49;;;;;;;0.30;0.30;;;22.30;53.30;;;;;;5096263;28;20061;-67
2021/05/22 11:00:23;;;;;;;0.50;0.50;;;22.30;54.00;;;;;;5100332;28;20046;-65
2021/05/22 11:03:10;;;;;;;1.15;0.50;;;22.30;53.30;;;;;;5105098;28;20069;-67
2021/05/22 11:05:43;;;;;;;0.60;0.40;;;22.30;53.30;;;;;;5102721;28;20336;-67
2021/05/22 11:08:22;;;;;;;;;;;22.30;53.30;;;;;;5104056;28;20046;-67
2021/05/22 11:10:59;;;;;;;0.80;0.40;;;22.30;53.30;;;;;;5107027;28;19940;-64
2021/05/22 11:13:32;;;;;;;0.68;0.40;;;22.30;53.90;;;;;;5101980;28;20058;-64
2021/05/22 11:16:07;;;;;;;0.38;0.30;;;22.30;53.20;;;;;;5098171;28;20578;-63
2021/05/22 11:18:39;;;;;;;0.80;0.52;;;22.30;53.20;;;;;;5101468;28;20047;-66
2021/05/22 11:21:20;;;;;;;0.32;0.32;;;22.30;53.20;;;;;;5103940;28;20632;-65
2021/05/22 11:24:04;;;;;;;0.88;0.40;;;22.40;53.20;;;;;;5105182;28;20657;-67
2021/05/22 11:27:00;;;;;;;0.68;0.57;;;22.30;53.20;;;;;;5095487;28;20423;-68
2021/05/22 11:29:57;;;;;;;0.32;0.32;;;22.30;53.20;;;;;;5087670;28;20062;-68
2021/05/22 11:32:57;;;;;;;3.83;0.50;;;22.30;53.20;;;;;;5089694;28;20043;-66
2021/05/22 11:35:35;;;;;;;0.75;0.38;;;22.40;53.20;;;;;;5102139;28;20049;-67
2021/05/22 11:38:11;;;;;;;0.65;0.45;;;22.30;53.10;;;;;;5104427;28;20066;-64
2021/05/22 11:41:01;;;;;;;0.98;0.50;;;22.30;53.20;;;;;;5105311;28;20513;-66
2021/05/22 11:43:41;;;;;;;0.73;0.50;;;22.30;53.30;;;;;;5107350;28;20046;-60
2021/05/22 11:46:16;;;;;;;0.50;0.50;;;22.30;53.30;;;;;;5102434;28;20053;-64
2021/05/22 11:48:53;;;;;;;0.70;0.60;;;22.30;53.20;;;;;;5090635;28;20403;-64
2021/05/22 11:51:33;;;;;;;1.50;0.43;;;22.30;53.20;;;;;;5113723;28;20058;-66
2021/05/22 11:54:07;;;;;;;0.77;0.40;;;22.30;53.20;;;;;;5104661;28;20046;-64
2021/05/22 11:56:41;;;;;;;0.57;0.40;;;22.30;53.30;;;;;;5100583;28;20053;-64
2021/05/22 11:59:14;;;;;;;0.30;0.30;;;22.30;53.30;;;;;;5102266;28;20073;-63
2021/05/22 12:01:49;;;;;;;0.77;0.40;;;22.30;53.20;;;;;;5087186;28;20685;-65
2021/05/22 12:04:21;;;;;;;0.70;0.40;;;22.30;53.20;;;;;;5111860;28;20126;-65
2021/05/22 12:06:55;;;;;;;0.65;0.60;;;22.30;53.30;;;;;;5107733;28;20064;-66
2021/05/22 12:09:32;;;;;;;0.77;0.30;;;22.30;53.20;;;;;;5102091;28;20066;-67
2021/05/22 12:12:08;;;;;;;0.40;0.40;;;22.30;53.30;;;;;;5119796;28;20042;-66
2021/05/22 12:14:46;;;;;;;0.60;0.40;;;22.30;53.30;;;;;;5106233;28;20537;-63
2021/05/22 12:17:20;;;;;;;1.85;0.55;;;22.30;53.30;;;;;;5100143;28;20440;-63
2021/05/22 12:19:55;;;;;;;1.02;0.40;;;22.30;53.30;;;;;;5106717;28;20047;-63
2021/05/22 12:22:29;;;;;;;0.82;0.50;;;22.30;53.20;;;;;;5097329;28;20156;-64
2021/05/22 12:25:01;;;;;;;0.50;0.30;;;22.30;53.20;;;;;;5103228;28;20069;-62
2021/05/22 12:27:36;;;;;;;0.70;0.50;;;22.30;53.20;;;;;;5101323;28;20964;-64
2021/05/22 12:30:11;;;;;;;0.82;0.38;;;22.30;53.30;;;;;;5098440;28;20054;-63
2021/05/22 12:32:44;;;;;;;1.60;0.52;;;22.30;53.10;;;;;;5109043;28;20049;-62
2021/05/22 12:35:17;;;;;;;0.38;0.38;;;22.30;53.10;;;;;;5104596;28;20046;-63
2021/05/22 12:37:51;;;;;;;0.52;0.50;;;22.30;53.00;;;;;;5093423;28;20054;-65
2021/05/22 12:40:24;;;;;;;0.35;0.35;;;22.30;53.00;;;;;;5101026;28;20426;-66
2021/05/22 12:42:56;;;;;;;0.30;0.30;;;22.30;53.10;;;;;;5098057;28;20783;-65
2021/05/22 12:45:35;;;;;;;0.40;0.40;;;22.30;53.00;;;;;;5110971;28;20734;-66
2021/05/22 12:48:20;;;;;;;0.88;0.50;;;22.20;53.10;;;;;;5112581;28;20054;-65
2021/05/22 12:50:53;;;;;;;0.60;0.60;;;22.20;53.10;;;;;;5115407;28;20051;-63
2021/05/22 12:53:30;;;;;;;1.02;0.50;;;22.30;53.20;;;;;;5108474;28;20042;-64
2021/05/22 12:56:06;;;;;;;0.30;0.30;;;22.20;53.10;;;;;;5102113;28;20061;-63
2021/05/22 12:58:39;;;;;;;0.45;0.45;;;22.20;53.30;;;;;;5099147;28;20050;-63
2021/05/22 13:01:20;;;;;;;0.63;0.38;;;22.20;53.20;;;;;;5119760;28;20046;-64
2021/05/22 13:03:52;;;;;;;0.40;0.40;;;22.20;53.20;;;;;;5093185;28;20061;-64
2021/05/22 13:06:29;;;;;;;0.80;0.40;;;22.30;53.20;;;;;;5109206;28;20514;-64
2021/05/22 13:09:08;;;;;;;1.23;0.60;;;22.30;53.10;;;;;;5097574;28;20238;-66
2021/05/22 13:11:56;;;;;;;0.75;0.45;;;22.30;53.20;;;;;;5105543;28;20421;-65
2021/05/22 13:14:51;;;;;;;2.25;0.35;;;22.20;53.10;;;;;;5116066;28;20121;-64
2021/05/22 13:17:24;;;;;;;0.80;0.40;;;22.30;53.10;;;;;;5101415;28;20057;-63
2021/05/22 13:19:57;;;;;;;2.03;0.50;;;22.30;53.10;;;;;;5103921;28;20534;-67
2021/05/22 13:22:31;;;;;;;0.50;0.40;;;22.30;53.10;;;;;;5103618;28;20050;-65
2021/05/22 13:25:19;;;;;;;1.42;0.50;;;22.30;53.10;;;;;;5107445;28;20066;-64
2021/05/22 13:28:07;;;;;;;1.38;0.50;;;22.30;53.00;;;;;;5120280;28;20054;-64
2021/05/22 13:30:43;;;;;;;0.38;0.38;;;22.30;53.00;;;;;;5103323;28;20661;-64
2021/05/22 13:33:29;;;;;;;0.70;0.40;;;22.30;52.90;;;;;;5107248;28;20058;-62
2021/05/22 13:36:03;;;;;;;0.82;0.40;;;22.30;52.90;;;;;;5114461;28;20077;-64
2021/05/22 13:38:36;;;;;;;0.50;0.50;;;22.30;52.90;;;;;;5110652;28;20055;-63
2021/05/22 13:41:09;;;;;;;0.40;0.40;;;22.30;53.00;;;;;;5109892;28;20058;-62
2021/05/22 13:43:42;;;;;;;0.50;0.50;;;22.30;52.90;;;;;;5110056;28;20043;-62
2021/05/22 13:46:14;;;;;;;1.80;0.50;;;22.30;52.90;;;;;;5113037;28;20431;-63
2021/05/22 13:48:47;;;;;;;0.40;0.40;;;22.30;52.90;;;;;;5099342;28;20850;-63
2021/05/22 13:51:21;;;;;;;0.88;0.50;;;22.30;52.90;;;;;;5107990;28;20046;-66
2021/05/22 13:53:53;;;;;;;1.35;0.50;;;22.30;52.90;;;;;;5108005;28;20092;-63
2021/05/22 13:56:26;;;;;;;0.40;0.40;;;22.30;52.90;;;;;;5115378;28;20061;-66
2021/05/22 13:58:59;;;;;;;0.40;0.35;;;22.30;53.00;;;;;;5111820;28;20050;-59
2021/05/22 14:01:32;;;;;;;0.50;0.40;;;22.30;52.90;;;;;;5114753;28;20047;-60
2021/05/22 14:04:05;;;;;;;0.45;0.40;;;22.30;52.90;;;;;;5109183;28;20069;-67
2021/05/22 14:06:37;;;;;;;0.45;0.45;;;22.30;53.00;;;;;;5102591;28;20043;-64
2021/05/22 14:09:10;;;;;;;0.32;0.32;;;22.30;53.00;;;;;;5106550;28;20041;-62
2021/05/22 14:11:43;;;;;;;0.35;0.35;;;22.30;52.90;;;;;;5111144;28;20058;-58
2021/05/22 14:14:16;;;;;;;0.93;0.40;;;22.30;52.90;;;;;;5113995;28;20616;-63
2021/05/22 14:16:49;;;;;;;0.70;0.40;;;22.30;52.90;;;;;;5106139;28;20269;-62
2021/05/22 14:19:22;;;;;;;1.35;0.40;;;22.30;52.90;;;;;;5120677;28;20414;-63
2021/05/22 14:21:54;;;;;;;0.82;0.43;;;22.30;52.90;;;;;;5114022;28;20532;-66
2021/05/22 14:24:27;;;;;;;1.10;0.47;;;22.30;52.80;;;;;;5111036;28;20054;-64
2021/05/22 14:27:00;;;;;;;0.40;0.40;;;22.30;52.80;;;;;;5112823;28;20059;-60
2021/05/22 14:29:32;;;;;;;0.82;0.30;;;22.30;52.80;;;;;;5107674;28;20046;-61
2021/05/22 14:32:05;;;;;;;0.37;0.30;;;22.30;52.80;;;;;;5101359;28;20055;-62
2021/05/22 14:34:38;;;;;;;0.45;0.40;;;22.30;52.80;;;;;;5090461;28;20038;-65
2021/05/22 14:37:11;;;;;;;1.17;0.50;;;22.30;52.80;;;;;;5108987;28;20616;-62
2021/05/22 14:39:43;;;;;;;0.82;0.30;;;22.30;52.90;;;;;;5109897;28;20061;-58
2021/05/22 14:42:16;;;;;;;1.15;0.50;;;22.30;52.80;;;;;;5111181;28;20051;-59
2021/05/22 14:44:48;;;;;;;0.45;0.35;;;22.30;52.90;;;;;;5101430;28;20522;-65
2021/05/22 14:47:21;;;;;;;0.97;0.70;;;22.30;52.90;;;;;;5107094;28;22132;-64
2021/05/22 14:49:53;;;;;;;0.40;0.40;;;22.30;52.90;;;;;;5115999;28;20305;-63
2021/05/22 14:52:26;;;;;;;0.65;0.45;;;22.30;52.90;;;;;;5113691;28;20542;-62
2021/05/22 14:54:59;;;;;;;0.30;0.30;;;22.30;52.90;;;;;;5108772;28;20046;-62
2021/05/22 14:57:32;;;;;;;1.17;0.43;;;22.30;53.00;;;;;;5105792;28;20054;-64
2021/05/22 15:00:10;;;;;;;0.30;0.30;;;22.20;52.90;;;;;;5104820;28;20550;-63
2021/05/22 15:02:42;;;;;;;0.73;0.50;;;22.30;53.00;;;;;;5110275;28;20046;-61
2021/05/22 15:05:15;;;;;;;0.60;0.50;;;22.30;52.90;;;;;;5103468;28;20066;-63
2021/05/22 15:07:48;;;;;;;0.68;0.30;;;22.30;52.80;;;;;;5110187;28;20060;-64
2021/05/22 15:10:22;;;;;;;0.77;0.50;;;22.30;52.80;;;;;;5103645;28;20065;-60
2021/05/22 15:12:55;;;;;;;0.82;0.47;;;22.30;52.70;;;;;;5107552;28;20068;-58
2021/05/22 15:15:27;;;;;;;0.50;0.50;;;22.30;52.70;;;;;;5108685;28;20473;-60
2021/05/22 15:18:00;;;;;;;1.00;0.30;;;22.30;52.70;;;;;;5109739;28;20055;-64
2021/05/22 15:20:33;;;;;;;0.75;0.60;;;22.30;52.80;;;;;;5114240;28;20709;-62
2021/05/22 15:23:05;;;;;;;0.50;0.47;;;22.30;52.80;;;;;;5113337;28;20065;-63
2021/05/22 15:25:39;;;;;;;1.47;0.57;;;22.30;52.80;;;;;;5129382;28;21014;-65
2021/05/22 15:28:11;;;;;;;0.40;0.40;;;22.30;52.90;;;;;;5113468;28;20046;-64
2021/05/22 15:30:44;;;;;;;0.60;0.45;;;22.30;52.80;;;;;;5116267;28;20042;-64
2021/05/22 15:33:17;;;;;;;0.40;0.40;;;22.30;52.80;;;;;;5120446;28;20596;-64
2021/05/22 15:35:50;;;;;;;0.30;0.30;;;22.30;52.80;;;;;;5114579;28;20065;-64
2021/05/22 15:38:22;;;;;;;0.40;0.40;;;22.30;52.80;;;;;;5113727;28;20471;-64
2021/05/22 15:40:55;;;;;;;0.68;0.55;;;22.30;52.90;;;;;;5109424;28;20046;-63
2021/05/22 15:43:28;;;;;;;1.92;0.50;;;22.20;52.80;;;;;;5109557;28;20035;-62
2021/05/22 15:46:00;;;;;;;0.90;0.60;;;22.20;52.80;;;;;;5107983;28;20052;-64
2021/05/22 15:59:45;;;;;;;0.65;0.45;;;22.20;52.90;;;;;;5110757;28;20045;-65
2021/05/22 16:05:33;;;;;;;0.70;0.50;;;22.20;53.00;;;;;;5105066;28;20895;-64
2021/05/22 16:08:05;;;;;;;0.43;0.40;;;22.10;53.00;;;;;;5108448;28;20057;-60
2021/05/22 16:10:38;;;;;;;0.30;0.30;;;22.10;53.00;;;;;;5107600;28;20415;-64
2021/05/22 16:13:11;;;;;;;0.90;0.40;;;22.10;53.00;;;;;;5109644;28;20355;-63
2021/05/22 16:15:44;;;;;;;0.33;0.30;;;22.10;53.00;;;;;;5110922;28;20053;-61
2021/05/22 16:18:16;;;;;;;0.40;0.40;;;22.10;53.00;;;;;;5107189;28;20515;-64
2021/05/22 16:20:49;;;;;;;0.43;0.43;;;22.10;53.00;;;;;;5110797;28;20419;-64
2021/05/22 16:23:22;;;;;;;0.63;0.50;;;22.10;53.00;;;;;;5110913;28;20630;-65
2021/05/22 16:25:55;;;;;;;0.40;0.40;;;22.10;53.00;;;;;;5108038;28;20074;-64
2021/05/22 16:28:28;;;;;;;0.50;0.50;;;22.20;53.00;;;;;;5109071;28;20045;-63
2021/05/22 16:31:00;;;;;;;0.50;0.40;;;22.10;52.90;;;;;;5110673;28;20465;-63
2021/05/22 16:33:33;;;;;;;0.80;0.47;;;22.10;52.90;;;;;;5108062;28;20053;-62
2021/05/22 16:36:07;;;;;;;1.13;0.63;;;22.20;53.00;;;;;;5127580;28;20058;-64
2021/05/22 16:38:39;;;;;;;0.40;0.40;;;22.10;52.90;;;;;;5104584;28;20758;-65
2021/05/22 16:41:12;;;;;;;0.73;0.60;;;22.10;53.00;;;;;;5110706;28;20050;-63
2021/05/22 16:43:44;;;;;;;0.47;0.40;;;22.10;52.90;;;;;;5110760;28;20046;-65
2021/05/22 16:46:18;;;;;;;0.38;0.38;;;22.10;53.00;;;;;;5111631;28;20159;-64
2021/05/22 16:48:51;;;;;;;0.38;0.38;;;22.10;53.00;;;;;;5114016;28;20043;-64
2021/05/22 16:51:25;;;;;;;0.40;0.30;;;22.10;53.00;;;;;;5110609;28;21440;-64
2021/05/22 16:53:58;;;;;;;0.60;0.40;;;22.10;53.10;;;;;;5112205;28;20062;-64
2021/05/22 16:56:30;;;;;;;0.52;0.45;;;22.10;53.00;;;;;;5123238;28;20057;-60
2021/05/22 16:59:04;;;;;;;0.68;0.55;;;22.10;53.00;;;;;;5114228;28;20519;-64
2021/05/22 17:01:36;;;;;;;1.30;0.45;;;22.10;53.10;;;;;;5108317;28;20058;-65
2021/05/22 17:04:09;;;;;;;0.30;0.30;;;22.10;53.00;;;;;;5105222;28;20054;-65
2021/05/22 17:06:42;;;;;;;0.68;0.45;;;22.10;53.00;;;;;;5110679;28;20067;-64
2021/05/22 17:09:15;;;;;;;0.40;0.35;;;22.10;53.10;;;;;;5101935;28;20067;-65
2021/05/22 17:11:47;;;;;;;1.42;0.63;;;22.10;53.10;;;;;;5112199;28;20049;-65
2021/05/22 17:14:20;;;;;;;0.93;0.45;;;22.10;53.10;;;;;;5103302;28;20058;-62
2021/05/22 17:16:53;;;;;;;0.47;0.40;;;22.10;53.10;;;;;;5115137;28;20066;-63
2021/05/22 17:19:25;;;;;;;0.95;0.50;;;22.10;53.20;;;;;;5106827;28;20660;-67
2021/05/22 17:21:58;;;;;;;;;;;22.10;53.10;;;;;;5109648;28;20570;-64
2021/05/22 17:24:31;;;;;;;0.40;0.40;;;22.00;53.10;;;;;;5112346;28;19929;-63
2021/05/22 17:27:05;;;;;;;0.70;0.52;;;22.10;53.10;;;;;;5109036;28;20050;-62
2021/05/22 17:29:37;;;;;;;0.50;0.50;;;22.00;53.10;;;;;;5107549;28;20046;-64
2021/05/22 17:32:11;;;;;;;0.52;0.52;;;22.10;53.20;;;;;;5107738;28;20047;-65
2021/05/22 17:34:44;;;;;;;0.40;0.40;;;22.00;53.10;;;;;;5107083;28;20471;-59
2021/05/22 17:37:16;;;;;;;0.68;0.68;;;22.10;53.20;;;;;;5107947;28;20057;-68
2021/05/22 17:39:49;;;;;;;0.65;0.60;;;22.00;53.20;;;;;;5112111;28;20046;-64
2021/05/22 17:42:22;;;;;;;0.43;0.43;;;22.10;53.30;;;;;;5109821;28;20077;-62
2021/05/22 17:44:54;;;;;;;0.52;0.52;;;22.00;53.20;;;;;;5110245;28;20103;-62
2021/05/22 17:47:27;;;;;;;1.35;0.43;;;22.00;53.30;;;;;;5106490;28;20061;-64
2021/05/22 17:50:00;;;;;;;0.50;0.30;;;22.00;53.30;;;;;;5112978;28;20057;-64
2021/05/22 17:52:33;;;;;;;;;;;22.00;53.30;;;;;;5113222;28;20394;-60
2021/05/22 17:55:07;;;;;;;0.90;0.50;;;22.00;53.30;;;;;;5106254;28;19937;-67
2021/05/22 17:57:40;;;;;;;1.38;0.43;;;21.90;53.20;;;;;;5105147;28;21234;-67
2021/05/22 18:00:16;;;;;;;0.60;0.50;;;22.00;53.20;;;;;;5109891;28;20059;-61
2021/05/22 18:02:49;;;;;;;0.77;0.60;;;22.00;53.20;;;;;;5110465;28;20062;-64
2021/05/22 18:05:24;;;;;;;1.10;0.40;;;22.00;53.90;;;;;;5118032;28;20300;-63
2021/05/22 18:07:57;;;;;;;0.70;0.57;;;21.90;53.20;;;;;;5112219;28;20053;-65
2021/05/22 18:10:31;;;;;;;1.23;0.60;;;21.90;53.20;;;;;;5109573;28;20081;-63
2021/05/22 18:13:04;;;;;;;0.98;0.50;;;21.90;53.30;;;;;;5111356;28;20073;-62
2021/05/22 18:15:38;;;;;;;1.52;0.50;;;21.90;53.20;;;;;;5116938;28;20039;-62
2021/05/22 18:18:10;;;;;;;0.50;0.50;;;22.00;53.30;;;;;;5107324;28;20065;-63
2021/05/22 18:20:43;;;;;;;0.47;0.45;;;22.00;53.20;;;;;;5126121;28;20058;-63
2021/05/22 18:23:16;;;;;;;0.30;0.30;;;22.00;53.20;;;;;;5123887;28;20065;-64
2021/05/22 18:25:49;;;;;;;1.13;0.50;;;21.90;53.20;;;;;;5118578;28;20062;-62
2021/05/22 18:28:23;;;;;;;0.63;0.32;;;21.90;53.20;;;;;;5108315;28;20042;-65
2021/05/22 18:30:55;;;;;;;1.20;0.50;;;21.90;53.20;;;;;;5109978;28;20452;-62
2021/05/22 18:33:29;;;;;;;0.60;0.50;;;21.90;53.20;;;;;;5113760;28;20055;-67
2021/05/22 18:36:02;;;;;;;0.75;0.30;;;21.90;53.20;;;;;;5112436;28;20454;-62